createdAt,value
2023-04-18T00:00:57.582Z,309.40
2023-04-18T00:01:57.530Z,312.50
2023-04-18T00:02:57.595Z,285.90
2023-04-18T00:03:57.511Z,259.60
2023-04-18T00:04:57.529Z,262.60
2023-04-18T00:05:58.465Z,344.40
2023-04-18T00:06:57.523Z,422.20
2023-04-18T00:07:57.426Z,468.00
2023-04-18T00:08:57.369Z,487.50
2023-04-18T00:09:57.410Z,502.70
2023-04-18T00:10:57.363Z,540.50
2023-04-18T00:11:57.320Z,480.50
2023-04-18T00:12:57.349Z,525.80
2023-04-18T00:13:57.265Z,482.40
2023-04-18T00:14:57.410Z,461.90
2023-04-18T00:15:57.339Z,475.90
2023-04-18T00:16:57.523Z,459.30
2023-04-18T00:17:57.469Z,525.90
2023-04-18T00:18:57.431Z,554.80
2023-04-18T00:19:58.304Z,535.30
2023-04-18T00:20:57.294Z,570.10
2023-04-18T00:21:57.341Z,589.20
2023-04-18T00:22:57.550Z,587.80
2023-04-18T00:23:57.397Z,537.60
2023-04-18T00:24:57.424Z,498.80
2023-04-18T00:25:57.374Z,481.50
2023-04-18T00:28:55.917Z,517.60
2023-04-18T00:29:57.086Z,482.50
2023-04-18T00:30:57.222Z,455.50
2023-04-18T00:31:57.214Z,458.70
2023-04-18T00:32:57.061Z,414.90
2023-04-18T00:33:57.085Z,443.00
2023-04-18T00:34:57.077Z,450.90
2023-04-18T00:35:57.080Z,471.10
2023-04-18T00:36:57.266Z,460.10
2023-04-18T00:37:57.154Z,503.30
2023-04-18T00:38:57.211Z,537.40
2023-04-18T00:39:57.082Z,529.40
2023-04-18T00:40:57.331Z,545.90
2023-04-18T00:41:57.069Z,561.60
2023-04-18T00:42:57.078Z,567.80
2023-04-18T00:43:57.034Z,577.70
2023-04-18T00:44:57.128Z,547.70
2023-04-18T00:45:57.205Z,540.10
2023-04-18T00:46:57.016Z,535.90
2023-04-18T00:49:02.375Z,555.70
2023-04-18T00:49:04.167Z,750.80
2023-04-18T00:50:05.284Z,521.50
2023-04-18T00:51:04.247Z,547.00
2023-04-18T00:52:04.165Z,616.20
2023-04-18T00:53:04.105Z,628.20
2023-04-18T00:54:04.278Z,584.70
2023-04-18T00:55:04.278Z,620.50
2023-04-18T00:56:04.203Z,573.30
2023-04-18T00:57:04.203Z,580.30
2023-04-18T00:58:48.335Z,564.00
2023-04-18T00:59:04.064Z,773.00
2023-04-18T01:00:04.168Z,595.60
2023-04-18T01:01:04.277Z,607.20
2023-04-18T01:02:04.263Z,616.10
2023-04-18T01:03:04.378Z,657.60
2023-04-18T01:04:04.218Z,613.20
2023-04-18T01:05:04.139Z,631.50
2023-04-18T01:06:04.114Z,587.50
2023-04-18T01:07:04.009Z,564.30
2023-04-18T01:08:04.011Z,597.00
2023-04-18T01:09:03.987Z,527.90
2023-04-18T01:10:04.090Z,543.00
2023-04-18T01:11:03.993Z,512.80
2023-04-18T01:12:04.001Z,477.10
2023-04-18T01:13:03.973Z,496.90
2023-04-18T01:14:03.969Z,550.10
2023-04-18T01:15:04.000Z,564.80
2023-04-18T01:16:04.074Z,564.60
2023-04-18T01:17:04.214Z,543.40
2023-04-18T01:18:04.164Z,518.00
2023-04-18T01:19:04.014Z,519.30
2023-04-18T01:20:04.116Z,507.00
2023-04-18T01:21:04.028Z,516.50
2023-04-18T01:22:04.091Z,531.10
2023-04-18T01:23:04.345Z,558.10
2023-04-18T01:24:04.174Z,548.70
2023-04-18T01:25:03.953Z,544.30
2023-04-18T01:26:03.948Z,517.40
2023-04-18T01:27:03.891Z,512.50
2023-04-18T01:28:03.954Z,542.10
2023-04-18T01:29:03.956Z,522.70
2023-04-18T01:30:03.861Z,511.90
2023-04-18T01:31:03.871Z,537.70
2023-04-18T01:32:04.035Z,455.90
2023-04-18T01:33:04.017Z,461.60
2023-04-18T01:34:03.874Z,448.00
2023-04-18T01:35:03.891Z,436.80
2023-04-18T01:36:03.938Z,430.70
2023-04-18T01:37:03.972Z,399.80
2023-04-18T01:38:03.917Z,414.60
2023-04-18T01:39:03.950Z,392.80
2023-04-18T01:40:03.927Z,413.80
2023-04-18T01:41:03.984Z,400.60
2023-04-18T01:42:03.896Z,408.20
2023-04-18T01:43:03.881Z,385.00
2023-04-18T01:44:03.822Z,429.60
2023-04-18T01:45:03.788Z,438.00
2023-04-18T01:46:03.818Z,431.30
2023-04-18T01:47:03.821Z,453.40
2023-04-18T01:48:03.834Z,463.80
2023-04-18T01:49:03.722Z,473.10
2023-04-18T01:50:03.793Z,520.40
2023-04-18T01:51:03.763Z,434.80
2023-04-18T01:52:03.807Z,574.00
2023-04-18T01:53:03.765Z,575.90
2023-04-18T01:54:03.755Z,506.70
2023-04-18T01:55:03.832Z,467.20
2023-04-18T01:56:03.743Z,510.80
2023-04-18T01:57:03.759Z,524.60
2023-04-18T01:58:03.723Z,509.80
2023-04-18T01:59:03.783Z,506.20
2023-04-18T02:00:03.787Z,513.60
2023-04-18T02:01:04.919Z,529.30
2023-04-18T02:02:03.975Z,531.60
2023-04-18T02:03:03.842Z,586.80
2023-04-18T02:04:03.829Z,553.90
2023-04-18T02:05:03.685Z,607.70
2023-04-18T02:06:03.779Z,593.10
2023-04-18T02:07:03.578Z,578.10
2023-04-18T02:08:03.638Z,602.00
2023-04-18T02:09:03.673Z,586.60
2023-04-18T02:10:03.589Z,599.00
2023-04-18T02:11:03.653Z,590.30
2023-04-18T02:12:04.824Z,594.90
2023-04-18T02:13:03.674Z,584.50
2023-04-18T02:14:03.683Z,599.00
2023-04-18T02:15:03.659Z,587.70
2023-04-18T02:18:15.832Z,539.90
2023-04-18T02:19:17.086Z,502.10
2023-04-18T02:20:17.106Z,451.60
2023-04-18T02:21:17.057Z,383.80
2023-04-18T02:22:18.169Z,408.20
2023-04-18T02:23:17.513Z,414.20
2023-04-18T02:24:17.123Z,461.90
2023-04-18T02:25:17.072Z,487.00
2023-04-18T02:26:17.038Z,494.70
2023-04-18T02:27:17.059Z,483.70
2023-04-18T02:28:17.061Z,490.10
2023-04-18T02:29:17.052Z,490.00
2023-04-18T02:30:16.929Z,521.70
2023-04-18T02:31:16.937Z,501.80
2023-04-18T02:32:16.945Z,502.20
2023-04-18T02:33:16.936Z,530.40
2023-04-18T02:34:16.982Z,516.50
2023-04-18T02:35:16.940Z,460.50
2023-04-18T02:36:16.932Z,471.70
2023-04-18T02:37:16.865Z,471.30
2023-04-18T02:38:16.895Z,453.40
2023-04-18T02:39:17.039Z,545.30
2023-04-18T02:40:16.975Z,521.60
2023-04-18T02:41:17.057Z,509.10
2023-04-18T02:42:16.989Z,468.60
2023-04-18T02:43:16.927Z,453.70
2023-04-18T02:46:15.229Z,518.00
2023-04-18T02:47:16.469Z,506.60
2023-04-18T02:48:16.452Z,516.10
2023-04-18T02:49:16.359Z,525.20
2023-04-18T02:50:16.417Z,418.60
2023-04-18T02:51:16.356Z,418.40
2023-04-18T02:52:16.342Z,365.60
2023-04-18T02:53:16.326Z,408.40
2023-04-18T02:54:16.521Z,481.40
2023-04-18T02:55:16.358Z,401.80
2023-04-18T02:56:16.462Z,418.90
2023-04-18T02:57:16.459Z,398.60
2023-04-18T02:58:16.361Z,341.20
2023-04-18T02:59:16.315Z,424.20
2023-04-18T03:00:49.641Z,331.70
2023-04-18T03:01:16.310Z,529.40
2023-04-18T03:02:16.407Z,429.50
2023-04-18T03:03:16.382Z,572.40
2023-04-18T03:04:16.507Z,666.00
2023-04-18T03:05:16.365Z,575.50
2023-04-18T03:06:16.318Z,581.50
2023-04-18T03:07:16.409Z,546.80
2023-04-18T03:08:16.286Z,490.80
2023-04-18T03:09:16.254Z,486.90
2023-04-18T03:10:16.201Z,476.20
2023-04-18T03:11:16.191Z,437.70
2023-04-18T03:12:16.277Z,417.50
2023-04-18T03:13:16.288Z,457.90
2023-04-18T03:14:16.267Z,468.80
2023-04-18T03:15:16.313Z,496.30
2023-04-18T03:16:16.341Z,521.10
2023-04-18T03:17:16.283Z,538.90
2023-04-18T03:18:16.305Z,466.10
2023-04-18T03:19:16.235Z,481.60
2023-04-18T03:20:16.221Z,463.20
2023-04-18T03:22:23.968Z,590.10
2023-04-18T03:23:25.413Z,501.10
2023-04-18T03:24:25.361Z,527.80
2023-04-18T03:25:25.362Z,503.20
2023-04-18T03:26:25.228Z,524.40
2023-04-18T03:27:25.222Z,540.10
2023-04-18T03:28:25.267Z,475.30
2023-04-18T03:29:25.212Z,487.10
2023-04-18T03:30:25.148Z,475.00
2023-04-18T03:31:58.447Z,473.20
2023-04-18T03:32:25.385Z,645.90
2023-04-18T03:33:25.203Z,402.50
2023-04-18T03:34:26.276Z,450.80
2023-04-18T03:35:25.129Z,453.20
2023-04-18T03:36:25.229Z,436.10
2023-04-18T03:37:25.144Z,457.90
2023-04-18T03:38:25.175Z,452.10
2023-04-18T03:39:25.176Z,468.20
2023-04-18T03:40:25.274Z,487.00
2023-04-18T03:41:25.232Z,462.90
2023-04-18T03:42:25.307Z,470.20
2023-04-18T03:43:25.167Z,494.10
2023-04-18T03:44:25.277Z,520.70
2023-04-18T03:45:25.200Z,536.30
2023-04-18T03:46:25.096Z,529.30
2023-04-18T03:47:25.220Z,510.30
2023-04-18T03:48:25.198Z,567.20
2023-04-18T03:49:26.160Z,563.10
2023-04-18T03:50:25.709Z,654.30
2023-04-18T03:51:24.986Z,629.80
2023-04-18T03:52:24.987Z,593.80
2023-04-18T03:53:25.028Z,638.40
2023-04-18T03:54:24.973Z,653.40
2023-04-18T03:55:25.251Z,625.50
2023-04-18T03:56:24.946Z,619.50
2023-04-18T03:57:25.032Z,628.20
2023-04-18T03:58:24.985Z,581.80
2023-04-18T03:59:25.041Z,584.10
2023-04-18T04:00:25.048Z,582.60
2023-04-18T04:01:25.080Z,563.40
2023-04-18T04:02:25.170Z,565.70
2023-04-18T04:03:25.270Z,540.60
2023-04-18T04:04:25.059Z,588.00
2023-04-18T04:05:25.022Z,589.80
2023-04-18T04:06:26.079Z,610.80
2023-04-18T04:07:25.159Z,609.40
2023-04-18T04:08:27.019Z,594.80
2023-04-18T04:09:24.916Z,621.90
2023-04-18T04:10:24.967Z,598.30
2023-04-18T04:11:24.979Z,586.00
2023-04-18T04:12:24.903Z,556.50
2023-04-18T04:13:24.881Z,493.00
2023-04-18T04:14:24.802Z,431.60
2023-04-18T04:15:24.865Z,329.00
2023-04-18T04:16:24.889Z,287.80
2023-04-18T04:17:24.944Z,203.50
2023-04-18T04:18:24.779Z,158.90
2023-04-18T04:19:24.889Z,160.20
2023-04-18T04:22:44.936Z,346.10
2023-04-18T04:23:46.338Z,220.30
2023-04-18T04:24:46.378Z,162.00
2023-04-18T04:25:46.182Z,179.20
2023-04-18T04:26:46.330Z,208.10
2023-04-18T04:27:46.780Z,265.80
2023-04-18T04:28:46.181Z,288.80
2023-04-18T04:29:46.254Z,289.20
2023-04-18T04:30:46.164Z,302.60
2023-04-18T04:31:46.231Z,297.70
2023-04-18T04:32:46.249Z,302.80
2023-04-18T04:33:46.190Z,362.00
2023-04-18T04:34:46.066Z,399.90
2023-04-18T04:35:46.073Z,432.30
2023-04-18T04:36:46.024Z,496.70
2023-04-18T04:37:46.083Z,495.80
2023-04-18T04:38:46.129Z,534.80
2023-04-18T04:39:46.281Z,548.30
2023-04-18T04:40:46.118Z,595.10
2023-04-18T04:41:46.241Z,601.30
2023-04-18T04:42:46.123Z,612.80
2023-04-18T04:43:46.264Z,601.80
2023-04-18T04:44:46.201Z,603.40
2023-04-18T04:45:46.252Z,595.20
2023-04-18T04:46:46.160Z,587.30
2023-04-18T04:48:09.397Z,558.00
2023-04-18T04:49:10.244Z,636.30
2023-04-18T04:49:46.951Z,562.40
2023-04-18T04:50:45.970Z,595.50
2023-04-18T04:51:45.957Z,570.50
2023-04-18T04:52:46.032Z,544.10
2023-04-18T04:53:46.036Z,537.50
2023-04-18T04:54:46.004Z,497.60
2023-04-18T04:55:45.954Z,551.10
2023-04-18T04:56:45.918Z,520.40
2023-04-18T04:57:45.952Z,525.70
2023-04-18T04:58:45.922Z,487.40
2023-04-18T05:00:18.965Z,461.80
2023-04-18T05:00:45.956Z,584.90
2023-04-18T05:01:45.991Z,316.90
2023-04-18T05:02:46.076Z,288.20
2023-04-18T05:03:46.435Z,273.90
2023-04-18T05:04:45.825Z,277.60
2023-04-18T05:05:45.973Z,270.70
2023-04-18T05:06:45.878Z,297.90
2023-04-18T05:07:45.830Z,282.80
2023-04-18T05:08:45.866Z,293.20
2023-04-18T05:10:20.319Z,209.70
2023-04-18T05:10:45.933Z,314.40
2023-04-18T05:11:45.843Z,172.90
2023-04-18T05:12:45.810Z,181.30
2023-04-18T05:13:45.841Z,181.70
2023-04-18T05:14:45.831Z,179.10
2023-04-18T05:15:45.858Z,187.40
2023-04-18T05:16:45.873Z,214.90
2023-04-18T05:17:45.829Z,266.20
2023-04-18T05:18:45.774Z,292.60
2023-04-18T05:19:45.792Z,326.60
2023-04-18T05:20:45.768Z,359.30
2023-04-18T05:21:45.886Z,363.80
2023-04-18T05:22:45.710Z,354.20
2023-04-18T05:23:45.797Z,343.20
2023-04-18T05:24:45.720Z,381.50
2023-04-18T05:25:45.738Z,430.60
2023-04-18T05:26:45.756Z,425.00
2023-04-18T05:28:19.038Z,426.40
2023-04-18T05:29:18.726Z,564.20
2023-04-18T05:30:19.834Z,525.30
2023-04-18T05:30:45.746Z,486.40
2023-04-18T05:32:24.745Z,277.20
2023-04-18T05:32:45.839Z,458.30
2023-04-18T05:34:18.795Z,249.40
2023-04-18T05:35:18.965Z,341.50
2023-04-18T05:36:18.818Z,503.30
2023-04-18T05:36:45.630Z,545.10
2023-04-18T05:39:55.352Z,399.70
2023-04-18T05:40:56.702Z,350.70
2023-04-18T05:41:56.626Z,324.90
2023-04-18T05:42:56.631Z,239.10
2023-04-18T05:44:04.929Z,207.90
2023-04-18T05:44:59.712Z,245.40
2023-04-18T05:45:57.859Z,247.00
2023-04-18T05:46:57.568Z,271.50
2023-04-18T05:47:56.648Z,337.70
2023-04-18T05:48:56.639Z,374.50
2023-04-18T05:49:56.646Z,357.30
2023-04-18T05:50:56.657Z,356.50
2023-04-18T05:51:56.544Z,430.70
2023-04-18T05:52:56.443Z,532.90
2023-04-18T05:53:56.480Z,566.40
2023-04-18T05:54:56.441Z,590.00
2023-04-18T05:55:56.528Z,598.80
2023-04-18T05:56:56.751Z,594.30
2023-04-18T05:57:56.564Z,535.40
2023-04-18T05:58:56.603Z,588.00
2023-04-18T05:59:56.517Z,574.70
2023-04-18T06:00:56.676Z,591.00
2023-04-18T06:01:56.546Z,572.00
2023-04-18T06:02:56.640Z,599.60
2023-04-18T06:03:56.718Z,600.00
2023-04-18T06:04:56.792Z,578.20
2023-04-18T06:05:56.523Z,535.40
2023-04-18T06:06:56.516Z,415.60
2023-04-18T06:07:56.449Z,317.40
2023-04-18T06:08:56.371Z,293.60
2023-04-18T06:09:56.434Z,278.70
2023-04-18T06:10:56.466Z,290.40
2023-04-18T06:16:03.461Z,502.40
2023-04-18T06:17:04.683Z,295.70
2023-04-18T06:18:04.826Z,173.20
2023-04-18T06:19:04.692Z,179.30
2023-04-18T06:20:04.789Z,208.90
2023-04-18T06:21:04.760Z,279.10
2023-04-18T06:22:04.678Z,326.80
2023-04-18T06:23:04.657Z,329.70
2023-04-18T06:24:04.660Z,347.20
2023-04-18T06:25:04.639Z,334.20
2023-04-18T06:26:04.570Z,349.10
2023-04-18T06:27:04.706Z,367.70
2023-04-18T06:31:15.647Z,546.20
2023-04-18T06:31:17.428Z,441.70
2023-04-18T06:32:18.007Z,293.20
2023-04-18T06:33:17.480Z,237.30
2023-04-18T06:34:17.596Z,183.70
2023-04-18T06:35:17.557Z,220.30
2023-04-18T06:36:17.527Z,264.30
2023-04-18T06:37:17.580Z,310.20
2023-04-18T06:38:17.414Z,363.60
2023-04-18T06:39:17.472Z,318.00
2023-04-18T06:40:17.435Z,246.30
2023-04-18T06:41:17.571Z,305.30
2023-04-18T06:42:17.427Z,356.60
2023-04-18T06:43:17.438Z,392.90
2023-04-18T06:44:17.411Z,437.90
2023-04-18T06:45:17.421Z,541.40
2023-04-18T06:46:17.395Z,518.10
2023-04-18T06:47:17.374Z,506.30
2023-04-18T06:48:17.535Z,506.20
2023-04-18T06:49:17.392Z,542.40
2023-04-18T06:50:17.370Z,454.20
2023-04-18T06:52:50.048Z,304.20
2023-04-18T06:53:51.475Z,268.30
2023-04-18T06:54:51.382Z,210.70
2023-04-18T06:55:51.419Z,299.30
2023-04-18T06:56:51.297Z,270.10
2023-04-18T06:57:51.266Z,240.70
2023-04-18T06:58:51.245Z,290.00
2023-04-18T06:59:51.184Z,318.10
2023-04-18T07:00:51.307Z,280.60
2023-04-18T07:01:51.304Z,213.00
2023-04-18T07:02:51.459Z,192.30
2023-04-18T07:03:51.451Z,217.40
2023-04-18T07:04:51.268Z,306.30
2023-04-18T07:05:52.263Z,288.40
2023-04-18T07:06:51.308Z,309.80
2023-04-18T07:07:51.330Z,290.40
2023-04-18T07:08:52.247Z,358.20
2023-04-18T07:09:52.025Z,327.00
2023-04-18T07:10:51.290Z,326.40
2023-04-18T07:11:51.326Z,341.00
2023-04-18T07:12:51.210Z,376.20
2023-04-18T07:13:51.324Z,387.40
2023-04-18T07:15:25.732Z,444.90
2023-04-18T07:15:51.141Z,663.30
2023-04-18T07:16:51.251Z,352.80
2023-04-18T07:17:51.133Z,307.50
2023-04-18T07:18:51.181Z,305.30
2023-04-18T07:19:51.094Z,282.90
2023-04-18T07:20:51.077Z,228.50
2023-04-18T07:21:51.121Z,230.60
2023-04-18T07:22:51.057Z,259.20
2023-04-18T07:23:51.048Z,344.90
2023-04-18T07:26:22.470Z,342.40
2023-04-18T07:26:24.205Z,625.60
2023-04-18T07:29:37.277Z,383.50
2023-04-18T07:30:38.572Z,275.80
2023-04-18T07:31:38.624Z,148.50
2023-04-18T07:32:38.543Z,129.20
2023-04-18T07:33:38.377Z,131.60
2023-04-18T07:34:38.353Z,129.90
2023-04-18T07:35:38.562Z,130.40
2023-04-18T07:36:38.735Z,144.80
2023-04-18T07:37:38.341Z,125.20
2023-04-18T07:38:38.378Z,149.70
2023-04-18T07:39:38.564Z,219.00
2023-04-18T07:40:38.359Z,212.00
2023-04-18T07:41:38.418Z,251.60
2023-04-18T07:42:40.428Z,263.00
2023-04-18T07:43:38.379Z,276.20
2023-04-18T07:44:38.418Z,279.90
2023-04-18T07:45:38.329Z,311.70
2023-04-18T07:46:38.448Z,307.20
2023-04-18T07:47:38.425Z,304.50
2023-04-18T07:48:38.356Z,332.20
2023-04-18T07:49:38.346Z,279.30
2023-04-18T07:50:38.613Z,310.80
2023-04-18T07:51:38.373Z,274.00
2023-04-18T07:52:39.380Z,331.10
2023-04-18T07:53:39.501Z,350.00
2023-04-18T07:54:38.357Z,308.80
2023-04-18T07:55:38.311Z,342.40
2023-04-18T07:56:38.332Z,303.40
2023-04-18T07:57:38.346Z,267.00
2023-04-18T07:58:38.408Z,229.60
2023-04-18T07:59:38.274Z,200.50
2023-04-18T08:00:38.443Z,261.90
2023-04-18T08:01:38.471Z,260.60
2023-04-18T08:02:38.427Z,282.80
2023-04-18T08:03:38.362Z,295.10
2023-04-18T08:04:39.458Z,348.90
2023-04-18T08:05:38.275Z,368.20
2023-04-18T08:07:12.243Z,327.70
2023-04-18T08:07:38.105Z,509.80
2023-04-18T08:08:38.123Z,272.10
2023-04-18T08:09:38.266Z,277.40
2023-04-18T08:10:38.124Z,267.50
2023-04-18T08:11:38.098Z,251.30
2023-04-18T08:12:38.073Z,261.80
2023-04-18T08:13:38.046Z,255.40
2023-04-18T08:14:38.045Z,296.50
2023-04-18T08:15:38.115Z,316.50
2023-04-18T08:16:38.384Z,310.20
2023-04-18T08:17:38.136Z,297.40
2023-04-18T08:18:38.071Z,293.40
2023-04-18T08:19:38.067Z,265.30
2023-04-18T08:20:38.125Z,290.00
2023-04-18T08:21:38.173Z,315.80
2023-04-18T08:22:46.958Z,311.70
2023-04-18T08:23:39.948Z,305.50
2023-04-18T08:24:38.135Z,289.70
2023-04-18T08:25:38.215Z,273.40
2023-04-18T08:26:38.093Z,279.90
2023-04-18T08:27:38.048Z,340.40
2023-04-18T08:29:12.466Z,372.60
2023-04-18T08:29:38.026Z,596.60
2023-04-18T08:32:36.533Z,514.50
2023-04-18T08:33:37.932Z,502.40
2023-04-18T08:34:37.764Z,452.40
2023-04-18T08:35:37.696Z,391.20
2023-04-18T08:36:37.822Z,301.30
2023-04-18T08:37:38.090Z,234.00
2023-04-18T08:38:37.871Z,246.60
2023-04-18T08:39:37.888Z,267.10
2023-04-18T08:40:37.792Z,225.50
2023-04-18T08:41:37.919Z,273.90
2023-04-18T08:42:37.761Z,237.90
2023-04-18T08:43:37.772Z,249.20
2023-04-18T08:44:37.630Z,262.60
2023-04-18T08:45:37.762Z,277.80
2023-04-18T08:46:37.732Z,204.30
2023-04-18T08:47:37.732Z,248.60
2023-04-18T08:48:37.827Z,271.90
2023-04-18T08:49:37.720Z,277.10
2023-04-18T08:50:37.708Z,262.20
2023-04-18T08:51:37.722Z,244.60
2023-04-18T08:52:37.702Z,251.20
2023-04-18T08:58:05.432Z,377.50
2023-04-18T08:59:08.104Z,225.60
2023-04-18T09:00:06.922Z,210.20
2023-04-18T09:01:07.226Z,184.20
2023-04-18T09:02:57.942Z,172.40
2023-04-18T09:03:06.678Z,342.40
2023-04-18T09:06:50.677Z,250.00
2023-04-18T09:07:52.383Z,187.10
2023-04-18T09:08:53.056Z,141.30
2023-04-18T09:09:52.462Z,133.60
2023-04-18T09:10:52.894Z,141.00
2023-04-18T09:19:56.838Z,211.90
2023-04-18T09:27:33.822Z,246.40
2023-04-18T09:28:34.908Z,150.70
2023-04-18T09:29:35.107Z,134.70
2023-04-18T09:30:34.958Z,154.70
2023-04-18T09:31:34.989Z,177.20
2023-04-18T09:32:34.962Z,170.80
2023-04-18T09:33:34.933Z,215.90
2023-04-18T09:35:07.953Z,235.00
2023-04-18T09:35:34.809Z,248.70
2023-04-18T09:36:35.887Z,237.50
2023-04-18T09:37:34.872Z,206.00
2023-04-18T09:38:35.155Z,277.00
2023-04-18T09:39:34.839Z,209.60
2023-04-18T09:40:34.862Z,225.90
2023-04-18T09:41:34.834Z,212.20
2023-04-18T09:42:34.770Z,263.60
2023-04-18T09:43:34.852Z,278.80
2023-04-18T09:44:34.836Z,255.70
2023-04-18T09:46:08.834Z,275.80
2023-04-18T09:46:34.856Z,650.30
2023-04-18T09:47:34.647Z,296.30
2023-04-18T09:48:34.649Z,280.40
2023-04-18T09:49:34.669Z,316.60
2023-04-18T09:50:34.760Z,312.10
2023-04-18T09:51:34.668Z,282.00
2023-04-18T09:52:34.642Z,327.20
2023-04-18T09:53:34.655Z,319.50
2023-04-18T09:54:34.679Z,359.50
2023-04-18T09:55:34.658Z,354.10
2023-04-18T09:56:34.689Z,403.70
2023-04-18T09:57:34.622Z,383.10
2023-04-18T09:58:34.670Z,419.10
2023-04-18T09:59:34.637Z,395.50
2023-04-18T10:00:34.695Z,345.90
2023-04-18T10:01:34.786Z,335.80
2023-04-18T10:02:34.659Z,311.00
2023-04-18T10:05:43.903Z,537.20
2023-04-18T10:06:45.071Z,374.50
2023-04-18T10:07:44.963Z,336.70
2023-04-18T10:08:44.871Z,356.70
2023-04-18T10:09:44.977Z,442.10
2023-04-18T10:10:45.049Z,307.50
2023-04-18T10:11:44.937Z,301.60
2023-04-18T10:12:44.859Z,344.80
2023-04-18T10:13:44.941Z,220.40
2023-04-18T10:14:44.930Z,202.40
2023-04-18T10:15:45.401Z,250.10
2023-04-18T10:16:48.515Z,234.30
2023-04-18T10:17:56.137Z,272.60
2023-04-18T10:41:20.935Z,794.00
2023-04-18T10:42:21.397Z,864.80
2023-04-18T11:29:33.821Z,715.50
2023-04-18T11:30:34.961Z,599.70
2023-04-18T11:31:34.738Z,611.90
2023-04-18T11:32:34.764Z,634.60
2023-04-18T11:33:34.874Z,786.40
2023-04-18T11:41:08.680Z,636.80
2023-04-18T11:42:09.658Z,739.80
2023-04-18T11:43:11.330Z,711.60
2023-04-18T11:44:09.564Z,742.00
2023-04-18T11:45:10.780Z,700.30
2023-04-18T11:46:09.944Z,603.20
2023-04-18T11:47:09.562Z,604.40
2023-04-18T11:48:09.590Z,592.80
2023-04-18T11:49:09.610Z,590.80
2023-04-18T11:50:09.540Z,608.60
2023-04-18T11:51:09.475Z,502.50
2023-04-18T11:52:10.490Z,680.80
2023-04-18T11:53:09.445Z,586.60
2023-04-18T11:54:09.447Z,582.40
2023-04-18T11:55:09.460Z,588.40
2023-04-18T11:56:09.417Z,513.10
2023-04-18T11:57:09.540Z,649.70
2023-04-18T11:58:09.454Z,527.30
2023-04-18T11:59:09.503Z,654.80
2023-04-18T12:00:09.679Z,602.20
2023-04-18T12:01:09.508Z,699.00
2023-04-18T12:02:16.151Z,786.60
2023-04-18T12:03:13.927Z,789.70
2023-04-18T12:04:10.494Z,792.20
2023-04-18T12:05:09.712Z,796.00
2023-04-18T12:06:09.500Z,774.30
2023-04-18T12:07:09.372Z,758.80
2023-04-18T12:08:14.487Z,657.90
2023-04-18T12:09:09.284Z,684.00
2023-04-18T12:10:09.609Z,741.70
2023-04-18T12:11:09.377Z,781.90
2023-04-18T12:12:09.488Z,681.40
2023-04-18T12:13:09.434Z,708.10
2023-04-18T12:14:11.756Z,692.20
2023-04-18T12:15:09.398Z,628.60
2023-04-18T12:16:09.389Z,727.80
2023-04-18T12:17:09.739Z,737.90
2023-04-18T12:18:09.412Z,810.20
2023-04-18T12:19:09.392Z,774.70
2023-04-18T12:20:09.397Z,876.80
2023-04-18T12:21:09.378Z,874.50
2023-04-18T12:22:09.381Z,824.80
2023-04-18T12:23:09.378Z,818.10
2023-04-18T12:24:09.367Z,883.80
2023-04-18T12:25:09.261Z,877.20
2023-04-18T12:26:09.439Z,854.20
2023-04-18T12:27:09.449Z,773.50
2023-04-18T12:28:09.313Z,850.30
2023-04-18T12:29:09.112Z,921.50
2023-04-18T12:30:09.196Z,910.80
2023-04-18T12:31:09.551Z,857.50
2023-04-18T12:32:09.155Z,870.40
2023-04-18T12:33:09.472Z,904.60
2023-04-18T12:34:09.239Z,929.70
2023-04-18T12:35:09.253Z,912.30
2023-04-18T12:36:09.321Z,866.00
2023-04-18T12:37:09.201Z,917.40
2023-04-18T12:38:09.484Z,925.50
2023-04-18T12:39:09.412Z,933.90
2023-04-18T12:40:09.369Z,916.20
2023-04-18T12:41:09.225Z,932.40
2023-04-18T12:42:09.288Z,893.40
2023-04-18T12:43:09.535Z,861.20
2023-04-18T12:44:09.462Z,911.50
2023-04-18T12:45:42.131Z,892.50
2023-04-18T12:46:09.533Z,909.40
2023-04-18T12:47:10.078Z,919.40
2023-04-18T12:48:09.698Z,822.90
2023-04-18T12:49:09.513Z,789.70
2023-04-18T12:50:11.221Z,751.00
2023-04-18T12:51:09.402Z,705.00
2023-04-18T12:52:09.395Z,642.80
2023-04-18T12:53:09.512Z,670.50
2023-04-18T12:54:09.326Z,729.10
2023-04-18T12:55:42.432Z,618.80
2023-04-18T12:56:09.425Z,771.10
2023-04-18T12:57:09.598Z,495.50
2023-04-18T12:58:09.561Z,765.30
2023-04-18T12:59:09.007Z,664.90
2023-04-18T13:00:09.633Z,775.40
2023-04-18T13:01:10.091Z,764.30
2023-04-18T13:02:09.549Z,792.50
2023-04-18T13:03:11.600Z,691.40
2023-04-18T13:04:12.926Z,745.60
2023-04-18T13:05:10.276Z,641.60
2023-04-18T13:06:09.048Z,722.00
2023-04-18T13:07:09.612Z,655.50
2023-04-18T13:08:16.791Z,584.70
2023-04-18T13:09:11.732Z,582.70
2023-04-18T13:10:09.526Z,574.60
2023-04-18T13:11:09.178Z,585.10
2023-04-18T13:12:09.142Z,522.10
2023-04-18T13:13:09.053Z,581.70
2023-04-18T13:14:08.950Z,605.00
2023-04-18T13:15:09.117Z,584.10
2023-04-18T13:16:09.413Z,589.30
2023-04-18T13:17:08.868Z,488.60
2023-04-18T13:18:09.082Z,531.80
2023-04-18T13:19:08.958Z,491.80
2023-04-18T13:20:09.213Z,612.30
2023-04-18T13:21:40.948Z,467.80
2023-04-18T13:22:09.109Z,829.00
2023-04-18T13:23:09.456Z,645.00
2023-04-18T13:24:09.162Z,661.50
2023-04-18T13:25:09.245Z,617.60
2023-04-18T13:26:09.097Z,540.10
2023-04-18T13:27:09.178Z,665.20
2023-04-18T13:28:08.911Z,611.70
2023-04-18T13:29:09.040Z,718.90
2023-04-18T13:30:09.094Z,654.00
2023-04-18T13:31:08.858Z,723.90
2023-04-18T13:32:09.203Z,694.60
2023-04-18T13:33:08.783Z,744.30
2023-04-18T13:34:42.400Z,616.70
2023-04-18T13:35:08.712Z,791.80
2023-04-18T13:36:09.377Z,767.70
2023-04-18T13:37:08.797Z,661.50
2023-04-18T13:38:08.679Z,631.40
2023-04-18T13:39:08.934Z,608.40
2023-04-18T13:40:08.766Z,622.80
2023-04-18T13:41:12.612Z,614.00
2023-04-18T13:42:09.792Z,577.00
2023-04-18T13:43:08.668Z,666.40
2023-04-18T13:44:08.783Z,592.20
2023-04-18T13:45:09.883Z,624.90
2023-04-18T13:46:09.077Z,513.70
2023-04-18T13:47:08.643Z,552.90
2023-04-18T13:48:08.742Z,595.00
2023-04-18T13:49:08.830Z,551.20
2023-04-18T13:50:08.823Z,674.60
2023-04-18T13:51:08.759Z,445.80
2023-04-18T13:52:08.711Z,515.60
2023-04-18T13:53:09.259Z,528.10
2023-04-18T13:54:08.637Z,475.40
2023-04-18T13:55:08.590Z,481.20
2023-04-18T13:56:08.721Z,542.20
2023-04-18T13:57:08.627Z,527.10
2023-04-18T13:58:09.822Z,494.40
2023-04-18T13:59:09.780Z,517.90
2023-04-18T14:02:06.995Z,777.60
2023-04-18T14:03:43.675Z,706.20
2023-04-18T14:04:08.190Z,844.50
2023-04-18T14:05:08.179Z,600.00
2023-04-18T14:06:08.170Z,638.70
2023-04-18T14:07:08.157Z,644.20
2023-04-18T14:08:07.960Z,632.60
2023-04-18T14:09:08.166Z,679.80
2023-04-18T14:10:08.118Z,678.00
2023-04-18T14:11:08.138Z,583.20
2023-04-18T14:12:08.231Z,701.00
2023-04-18T14:13:08.098Z,601.50
2023-04-18T14:14:08.200Z,637.80
2023-04-18T14:15:08.109Z,609.30
2023-04-18T14:16:08.432Z,619.80
2023-04-18T14:17:08.071Z,554.60
2023-04-18T14:18:08.094Z,554.80
2023-04-18T14:19:09.162Z,791.40
2023-04-18T14:20:08.135Z,954.50
2023-04-18T14:21:08.145Z,1000.90
2023-04-18T14:22:08.052Z,958.40
2023-04-18T14:23:08.422Z,941.70
2023-04-18T14:24:08.117Z,951.10
2023-04-18T14:25:08.340Z,932.10
2023-04-18T14:26:08.527Z,1021.30
2023-04-18T14:27:07.978Z,994.40
2023-04-18T14:28:08.001Z,1036.90
2023-04-18T14:29:07.973Z,964.00
2023-04-18T14:30:07.998Z,930.20
2023-04-18T14:31:08.008Z,920.50
2023-04-18T14:32:07.947Z,913.60
2023-04-18T14:33:07.956Z,941.20
2023-04-18T14:34:07.981Z,900.60
2023-04-18T14:35:07.937Z,940.80